アルジェ の空港の天気 - METARとTAF

ウアリ・ブーメディアン空港 ( DAAG / ALG ) - アルジェリア アルジェ
飛行場実況気象(Metar)
観測時間02/17 15:30 CET (02/17 14:30 UTC)
風向・風速北北東 4m/s
視程10km以上
天気現象
なし
気温19℃
湿度35%
気圧1024hPa
METARDAAG 171430Z 03007KT 350V060 CAVOK 19/03 Q1024
過去の天気等 Google飛行場航空写真 Wunderground天気予報

過去48時間のMETAR

飛行場予報(TAF)
発表時間: 2/17 12:00 CET (2/17 11:00 UTC)
予報対象時間: 17日13時 CET ~ 18日13時 CET
風向・風速南南西 4m/s
視程10km以上
なし
TAF DAAG 171100Z 1712/1812 20008KT CAVOK